Terminal Aerodrome Forecast
Issued by NWS Duluth, MN

Home | Current Version | Previous Version | Graphics & Text | Print | Product List | Glossary On
Versions: 1 2 3 4 5 6 7 8 9 10 11 12 13 14 15 16 17 18 19 20 21 22 23 24 25 26 27 28 29 30 31 32 33 34 35
000
FTUS43 KDLH 240500
TAFDLH
TAF
KDLH 240534Z 2406/2506 33012KT 4SM -RASN BR OVC004
     FM240900 33014G24KT 4SM -SN BLSN OVC007
     FM241400 33018G30KT 5SM -SN BLSN OVC016
     FM242000 34020G32KT 5SM -SN BLSN OVC024
     FM250400 32012KT P6SM BKN030=

USA.gov is the U.S. government's official web portal to all federal, state and local government web resources and services.